sensor_id;sensor_type;location;lat;lon;timestamp;temperature;humidity
52495;DHT22;38405;53.212;5.660;2023-07-29T00:01:35;17.60;99.90
52495;DHT22;38405;53.212;5.660;2023-07-29T00:04:02;17.60;99.90
52495;DHT22;38405;53.212;5.660;2023-07-29T00:06:27;17.60;99.90
52495;DHT22;38405;53.212;5.660;2023-07-29T00:08:53;17.60;99.90
52495;DHT22;38405;53.212;5.660;2023-07-29T00:11:19;17.60;99.90
52495;DHT22;38405;53.212;5.660;2023-07-29T00:13:45;17.50;99.90
52495;DHT22;38405;53.212;5.660;2023-07-29T00:16:10;17.60;99.90
52495;DHT22;38405;53.212;5.660;2023-07-29T00:18:36;17.50;99.90
52495;DHT22;38405;53.212;5.660;2023-07-29T00:21:02;17.60;99.90
52495;DHT22;38405;53.212;5.660;2023-07-29T00:23:28;17.50;99.90
52495;DHT22;38405;53.212;5.660;2023-07-29T00:25:54;17.50;99.90
52495;DHT22;38405;53.212;5.660;2023-07-29T00:28:20;17.60;99.90
52495;DHT22;38405;53.212;5.660;2023-07-29T00:30:45;17.50;99.90
52495;DHT22;38405;53.212;5.660;2023-07-29T00:33:11;17.60;99.90
52495;DHT22;38405;53.212;5.660;2023-07-29T00:35:37;17.60;99.90
52495;DHT22;38405;53.212;5.660;2023-07-29T00:38:02;17.60;99.90
52495;DHT22;38405;53.212;5.660;2023-07-29T00:40:29;17.60;99.90
52495;DHT22;38405;53.212;5.660;2023-07-29T00:42:55;17.60;99.90
52495;DHT22;38405;53.212;5.660;2023-07-29T00:45:21;17.50;99.90
52495;DHT22;38405;53.212;5.660;2023-07-29T00:47:46;17.50;99.90
52495;DHT22;38405;53.212;5.660;2023-07-29T00:50:14;17.50;99.90
52495;DHT22;38405;53.212;5.660;2023-07-29T00:52:41;17.40;99.90
52495;DHT22;38405;53.212;5.660;2023-07-29T00:55:07;17.40;99.90
52495;DHT22;38405;53.212;5.660;2023-07-29T00:57:33;17.40;99.90
52495;DHT22;38405;53.212;5.660;2023-07-29T00:59:59;17.40;99.90
52495;DHT22;38405;53.212;5.660;2023-07-29T01:02:26;17.40;99.90
52495;DHT22;38405;53.212;5.660;2023-07-29T01:04:54;17.40;99.90
52495;DHT22;38405;53.212;5.660;2023-07-29T01:10:10;17.40;99.90
52495;DHT22;38405;53.212;5.660;2023-07-29T01:12:56;17.40;99.90
52495;DHT22;38405;53.212;5.660;2023-07-29T01:15:36;17.40;99.90
52495;DHT22;38405;53.212;5.660;2023-07-29T01:18:08;17.50;99.90
52495;DHT22;38405;53.212;5.660;2023-07-29T01:20:38;17.40;99.90
52495;DHT22;38405;53.212;5.660;2023-07-29T01:23:05;17.40;99.90
52495;DHT22;38405;53.212;5.660;2023-07-29T01:25:31;17.40;99.90
52495;DHT22;38405;53.212;5.660;2023-07-29T01:27:59;17.40;99.90
52495;DHT22;38405;53.212;5.660;2023-07-29T01:30:39;17.40;99.90
52495;DHT22;38405;53.212;5.660;2023-07-29T01:33:20;17.50;99.90
52495;DHT22;38405;53.212;5.660;2023-07-29T01:35:52;17.50;99.90
52495;DHT22;38405;53.212;5.660;2023-07-29T01:38:55;17.50;99.90
52495;DHT22;38405;53.212;5.660;2023-07-29T01:41:14;17.50;99.90
52495;DHT22;38405;53.212;5.660;2023-07-29T01:43:42;17.50;99.90
52495;DHT22;38405;53.212;5.660;2023-07-29T01:46:12;17.50;99.90
52495;DHT22;38405;53.212;5.660;2023-07-29T01:48:39;17.50;99.90
52495;DHT22;38405;53.212;5.660;2023-07-29T01:51:05;17.50;99.90
52495;DHT22;38405;53.212;5.660;2023-07-29T01:53:30;17.50;99.90
52495;DHT22;38405;53.212;5.660;2023-07-29T01:55:56;17.50;99.90
52495;DHT22;38405;53.212;5.660;2023-07-29T01:58:23;17.60;99.90
52495;DHT22;38405;53.212;5.660;2023-07-29T02:00:48;17.60;99.90
52495;DHT22;38405;53.212;5.660;2023-07-29T02:03:14;17.50;99.90
52495;DHT22;38405;53.212;5.660;2023-07-29T02:05:40;17.50;99.90
52495;DHT22;38405;53.212;5.660;2023-07-29T02:08:05;17.50;99.90
52495;DHT22;38405;53.212;5.660;2023-07-29T02:10:31;17.40;99.90
52495;DHT22;38405;53.212;5.660;2023-07-29T02:12:57;17.40;99.90
52495;DHT22;38405;53.212;5.660;2023-07-29T02:15:23;17.40;99.90
52495;DHT22;38405;53.212;5.660;2023-07-29T02:17:50;17.40;99.90
52495;DHT22;38405;53.212;5.660;2023-07-29T02:20:16;17.40;99.90
52495;DHT22;38405;53.212;5.660;2023-07-29T02:22:42;17.40;99.90
52495;DHT22;38405;53.212;5.660;2023-07-29T02:25:08;17.40;99.90
52495;DHT22;38405;53.212;5.660;2023-07-29T02:27:33;17.40;99.90
52495;DHT22;38405;53.212;5.660;2023-07-29T02:29:59;17.40;99.90
52495;DHT22;38405;53.212;5.660;2023-07-29T02:32:25;17.50;99.90
52495;DHT22;38405;53.212;5.660;2023-07-29T02:34:50;17.50;99.90
52495;DHT22;38405;53.212;5.660;2023-07-29T02:37:16;17.50;99.90
52495;DHT22;38405;53.212;5.660;2023-07-29T02:39:42;17.50;99.90
52495;DHT22;38405;53.212;5.660;2023-07-29T02:42:08;17.50;99.90
52495;DHT22;38405;53.212;5.660;2023-07-29T02:44:33;17.40;99.90
52495;DHT22;38405;53.212;5.660;2023-07-29T02:46:59;17.40;99.90
52495;DHT22;38405;53.212;5.660;2023-07-29T02:49:25;17.30;99.90
52495;DHT22;38405;53.212;5.660;2023-07-29T02:51:50;17.30;99.90
52495;DHT22;38405;53.212;5.660;2023-07-29T02:54:16;17.20;99.90
52495;DHT22;38405;53.212;5.660;2023-07-29T02:56:42;17.20;99.90
52495;DHT22;38405;53.212;5.660;2023-07-29T02:59:08;17.20;99.90
52495;DHT22;38405;53.212;5.660;2023-07-29T03:01:33;17.10;99.90
52495;DHT22;38405;53.212;5.660;2023-07-29T03:03:59;17.00;99.90
52495;DHT22;38405;53.212;5.660;2023-07-29T03:06:25;17.00;99.90
52495;DHT22;38405;53.212;5.660;2023-07-29T03:08:51;16.90;99.90
52495;DHT22;38405;53.212;5.660;2023-07-29T03:11:16;16.80;99.90
52495;DHT22;38405;53.212;5.660;2023-07-29T03:13:43;16.80;99.90
52495;DHT22;38405;53.212;5.660;2023-07-29T03:16:17;16.80;99.90
52495;DHT22;38405;53.212;5.660;2023-07-29T03:18:43;16.70;99.90
52495;DHT22;38405;53.212;5.660;2023-07-29T03:21:10;16.70;99.90
52495;DHT22;38405;53.212;5.660;2023-07-29T03:23:36;16.60;99.90
52495;DHT22;38405;53.212;5.660;2023-07-29T03:26:03;16.60;99.90
52495;DHT22;38405;53.212;5.660;2023-07-29T03:28:36;16.50;99.90
52495;DHT22;38405;53.212;5.660;2023-07-29T03:31:02;16.50;99.90
52495;DHT22;38405;53.212;5.660;2023-07-29T03:33:28;16.50;99.90
52495;DHT22;38405;53.212;5.660;2023-07-29T03:35:54;16.40;99.90
52495;DHT22;38405;53.212;5.660;2023-07-29T03:38:20;16.40;99.90
52495;DHT22;38405;53.212;5.660;2023-07-29T03:40:46;16.40;99.90
52495;DHT22;38405;53.212;5.660;2023-07-29T03:43:11;16.30;99.90
52495;DHT22;38405;53.212;5.660;2023-07-29T03:45:39;16.30;99.90
52495;DHT22;38405;53.212;5.660;2023-07-29T03:48:05;16.30;99.90
52495;DHT22;38405;53.212;5.660;2023-07-29T03:50:33;16.30;99.90
52495;DHT22;38405;53.212;5.660;2023-07-29T03:52:59;16.30;99.90
52495;DHT22;38405;53.212;5.660;2023-07-29T03:55:25;16.30;99.90
52495;DHT22;38405;53.212;5.660;2023-07-29T03:57:51;16.30;99.90
52495;DHT22;38405;53.212;5.660;2023-07-29T04:00:16;16.30;99.90
52495;DHT22;38405;53.212;5.660;2023-07-29T04:02:42;16.30;99.90
52495;DHT22;38405;53.212;5.660;2023-07-29T04:05:08;16.30;99.90
52495;DHT22;38405;53.212;5.660;2023-07-29T04:07:35;16.30;99.90
52495;DHT22;38405;53.212;5.660;2023-07-29T04:10:01;16.30;99.90
52495;DHT22;38405;53.212;5.660;2023-07-29T04:12:27;16.40;99.90
52495;DHT22;38405;53.212;5.660;2023-07-29T04:14:52;16.40;99.90
52495;DHT22;38405;53.212;5.660;2023-07-29T04:17:18;16.40;99.90
52495;DHT22;38405;53.212;5.660;2023-07-29T04:19:44;16.40;99.90
52495;DHT22;38405;53.212;5.660;2023-07-29T04:22:09;16.40;99.90
52495;DHT22;38405;53.212;5.660;2023-07-29T04:24:35;16.40;99.90
52495;DHT22;38405;53.212;5.660;2023-07-29T04:27:01;16.40;99.90
52495;DHT22;38405;53.212;5.660;2023-07-29T04:29:29;16.40;99.90
52495;DHT22;38405;53.212;5.660;2023-07-29T04:31:55;16.40;99.90
52495;DHT22;38405;53.212;5.660;2023-07-29T04:34:21;16.40;99.90
52495;DHT22;38405;53.212;5.660;2023-07-29T04:36:47;16.40;99.90
52495;DHT22;38405;53.212;5.660;2023-07-29T04:39:13;16.40;99.90
52495;DHT22;38405;53.212;5.660;2023-07-29T04:41:39;16.50;99.90
52495;DHT22;38405;53.212;5.660;2023-07-29T04:44:05;16.50;99.90
52495;DHT22;38405;53.212;5.660;2023-07-29T04:46:30;16.50;99.90
52495;DHT22;38405;53.212;5.660;2023-07-29T04:48:56;16.60;99.90
52495;DHT22;38405;53.212;5.660;2023-07-29T04:51:22;16.60;99.90
52495;DHT22;38405;53.212;5.660;2023-07-29T04:53:48;16.70;99.90
52495;DHT22;38405;53.212;5.660;2023-07-29T04:56:14;16.70;99.90
52495;DHT22;38405;53.212;5.660;2023-07-29T04:58:39;16.80;99.90
52495;DHT22;38405;53.212;5.660;2023-07-29T05:01:05;16.80;99.90
52495;DHT22;38405;53.212;5.660;2023-07-29T05:03:31;16.80;99.90
52495;DHT22;38405;53.212;5.660;2023-07-29T05:05:58;16.90;99.90
52495;DHT22;38405;53.212;5.660;2023-07-29T05:08:27;16.90;99.90
52495;DHT22;38405;53.212;5.660;2023-07-29T05:10:53;16.90;99.90
52495;DHT22;38405;53.212;5.660;2023-07-29T05:13:20;17.00;99.90
52495;DHT22;38405;53.212;5.660;2023-07-29T05:15:48;17.00;99.90
52495;DHT22;38405;53.212;5.660;2023-07-29T05:18:14;17.00;99.90
52495;DHT22;38405;53.212;5.660;2023-07-29T05:20:40;17.00;99.90
52495;DHT22;38405;53.212;5.660;2023-07-29T05:23:06;17.10;99.90
52495;DHT22;38405;53.212;5.660;2023-07-29T05:25:32;17.10;99.90
52495;DHT22;38405;53.212;5.660;2023-07-29T05:27:57;17.10;99.90
52495;DHT22;38405;53.212;5.660;2023-07-29T05:30:23;17.10;99.90
52495;DHT22;38405;53.212;5.660;2023-07-29T05:32:49;17.20;99.90
52495;DHT22;38405;53.212;5.660;2023-07-29T05:35:14;17.20;99.90
52495;DHT22;38405;53.212;5.660;2023-07-29T05:37:40;17.20;99.90
52495;DHT22;38405;53.212;5.660;2023-07-29T05:40:07;17.30;99.90
52495;DHT22;38405;53.212;5.660;2023-07-29T05:42:34;17.30;99.90
52495;DHT22;38405;53.212;5.660;2023-07-29T05:45:00;17.30;99.90
52495;DHT22;38405;53.212;5.660;2023-07-29T05:47:26;17.40;99.90
52495;DHT22;38405;53.212;5.660;2023-07-29T05:49:52;17.50;99.90
52495;DHT22;38405;53.212;5.660;2023-07-29T05:52:18;17.50;99.90
52495;DHT22;38405;53.212;5.660;2023-07-29T05:54:44;17.60;99.90
52495;DHT22;38405;53.212;5.660;2023-07-29T05:57:13;17.70;99.90
52495;DHT22;38405;53.212;5.660;2023-07-29T05:59:39;17.70;99.90
52495;DHT22;38405;53.212;5.660;2023-07-29T06:02:05;17.80;99.90
52495;DHT22;38405;53.212;5.660;2023-07-29T06:04:31;17.80;99.90
52495;DHT22;38405;53.212;5.660;2023-07-29T06:06:57;17.90;99.90
52495;DHT22;38405;53.212;5.660;2023-07-29T06:09:22;18.00;99.90
52495;DHT22;38405;53.212;5.660;2023-07-29T06:11:48;18.20;99.90
52495;DHT22;38405;53.212;5.660;2023-07-29T06:14:14;18.50;99.90
52495;DHT22;38405;53.212;5.660;2023-07-29T06:16:40;18.70;99.90
52495;DHT22;38405;53.212;5.660;2023-07-29T06:19:06;18.90;99.90
52495;DHT22;38405;53.212;5.660;2023-07-29T06:21:34;19.00;99.90
52495;DHT22;38405;53.212;5.660;2023-07-29T06:24:00;19.10;99.90
52495;DHT22;38405;53.212;5.660;2023-07-29T06:26:25;19.10;99.90
52495;DHT22;38405;53.212;5.660;2023-07-29T06:28:51;19.20;99.90
52495;DHT22;38405;53.212;5.660;2023-07-29T06:31:17;19.30;99.90
52495;DHT22;38405;53.212;5.660;2023-07-29T06:33:42;19.20;99.90
52495;DHT22;38405;53.212;5.660;2023-07-29T06:36:08;19.20;99.90
52495;DHT22;38405;53.212;5.660;2023-07-29T06:38:34;19.10;99.90
52495;DHT22;38405;53.212;5.660;2023-07-29T06:40:59;19.10;99.90
52495;DHT22;38405;53.212;5.660;2023-07-29T06:43:25;19.10;99.90
52495;DHT22;38405;53.212;5.660;2023-07-29T06:45:51;19.10;99.90
52495;DHT22;38405;53.212;5.660;2023-07-29T06:48:17;19.10;99.90
52495;DHT22;38405;53.212;5.660;2023-07-29T06:50:44;19.10;99.90
52495;DHT22;38405;53.212;5.660;2023-07-29T06:53:10;19.10;99.90
52495;DHT22;38405;53.212;5.660;2023-07-29T06:55:35;19.10;99.90
52495;DHT22;38405;53.212;5.660;2023-07-29T06:58:01;18.90;99.90
52495;DHT22;38405;53.212;5.660;2023-07-29T07:00:27;18.90;99.90
52495;DHT22;38405;53.212;5.660;2023-07-29T07:02:53;18.80;99.90
52495;DHT22;38405;53.212;5.660;2023-07-29T07:05:19;18.90;99.90
52495;DHT22;38405;53.212;5.660;2023-07-29T07:07:44;19.00;99.90
52495;DHT22;38405;53.212;5.660;2023-07-29T07:10:10;19.20;99.90
52495;DHT22;38405;53.212;5.660;2023-07-29T07:12:35;19.50;99.90
52495;DHT22;38405;53.212;5.660;2023-07-29T07:15:01;20.10;99.90
52495;DHT22;38405;53.212;5.660;2023-07-29T07:17:29;20.50;99.90
52495;DHT22;38405;53.212;5.660;2023-07-29T07:19:55;20.90;99.90
52495;DHT22;38405;53.212;5.660;2023-07-29T07:22:21;21.20;99.90
52495;DHT22;38405;53.212;5.660;2023-07-29T07:24:46;21.10;99.90
52495;DHT22;38405;53.212;5.660;2023-07-29T07:27:12;20.80;99.90
52495;DHT22;38405;53.212;5.660;2023-07-29T07:29:38;20.50;99.90
52495;DHT22;38405;53.212;5.660;2023-07-29T07:32:03;20.30;99.90
52495;DHT22;38405;53.212;5.660;2023-07-29T07:34:29;20.10;99.90
52495;DHT22;38405;53.212;5.660;2023-07-29T07:36:55;20.10;99.90
52495;DHT22;38405;53.212;5.660;2023-07-29T07:39:20;20.20;99.90
52495;DHT22;38405;53.212;5.660;2023-07-29T07:41:46;20.60;99.90
52495;DHT22;38405;53.212;5.660;2023-07-29T07:44:13;20.80;99.90
52495;DHT22;38405;53.212;5.660;2023-07-29T07:46:41;20.80;99.90
52495;DHT22;38405;53.212;5.660;2023-07-29T07:49:07;20.60;99.90
52495;DHT22;38405;53.212;5.660;2023-07-29T07:51:32;20.50;99.90
52495;DHT22;38405;53.212;5.660;2023-07-29T07:53:58;21.10;99.90
52495;DHT22;38405;53.212;5.660;2023-07-29T07:56:24;22.00;99.90
52495;DHT22;38405;53.212;5.660;2023-07-29T07:58:49;22.90;99.90
52495;DHT22;38405;53.212;5.660;2023-07-29T08:01:15;23.40;99.90
52495;DHT22;38405;53.212;5.660;2023-07-29T08:03:41;23.10;99.90
52495;DHT22;38405;53.212;5.660;2023-07-29T08:06:06;22.80;99.90
52495;DHT22;38405;53.212;5.660;2023-07-29T08:08:32;22.40;99.90
52495;DHT22;38405;53.212;5.660;2023-07-29T08:10:58;22.10;99.90
52495;DHT22;38405;53.212;5.660;2023-07-29T08:13:24;21.80;99.90
52495;DHT22;38405;53.212;5.660;2023-07-29T08:15:50;21.50;99.90
52495;DHT22;38405;53.212;5.660;2023-07-29T08:18:17;21.30;99.90
52495;DHT22;38405;53.212;5.660;2023-07-29T08:20:56;21.30;99.90
52495;DHT22;38405;53.212;5.660;2023-07-29T08:23:27;21.30;99.90
52495;DHT22;38405;53.212;5.660;2023-07-29T08:25:57;21.70;99.90
52495;DHT22;38405;53.212;5.660;2023-07-29T08:28:31;21.70;99.90
52495;DHT22;38405;53.212;5.660;2023-07-29T08:30:57;21.60;99.90
52495;DHT22;38405;53.212;5.660;2023-07-29T08:33:23;21.90;99.90
52495;DHT22;38405;53.212;5.660;2023-07-29T08:35:48;22.60;99.90
52495;DHT22;38405;53.212;5.660;2023-07-29T08:38:14;22.80;99.90
52495;DHT22;38405;53.212;5.660;2023-07-29T08:40:45;22.70;99.90
52495;DHT22;38405;53.212;5.660;2023-07-29T08:43:12;22.50;99.90
52495;DHT22;38405;53.212;5.660;2023-07-29T08:45:40;22.20;99.90
52495;DHT22;38405;53.212;5.660;2023-07-29T08:48:10;22.00;99.90
52495;DHT22;38405;53.212;5.660;2023-07-29T08:50:37;21.80;99.90
52495;DHT22;38405;53.212;5.660;2023-07-29T08:53:06;21.60;99.90
52495;DHT22;38405;53.212;5.660;2023-07-29T08:55:32;21.50;99.90
52495;DHT22;38405;53.212;5.660;2023-07-29T08:57:59;21.40;99.90
52495;DHT22;38405;53.212;5.660;2023-07-29T09:00:26;21.40;99.90
52495;DHT22;38405;53.212;5.660;2023-07-29T09:02:53;21.50;99.90
52495;DHT22;38405;53.212;5.660;2023-07-29T09:05:19;21.50;99.90
52495;DHT22;38405;53.212;5.660;2023-07-29T09:07:46;21.60;99.90
52495;DHT22;38405;53.212;5.660;2023-07-29T09:10:13;21.60;99.90
52495;DHT22;38405;53.212;5.660;2023-07-29T09:12:40;21.50;99.90
52495;DHT22;38405;53.212;5.660;2023-07-29T09:15:06;21.50;99.90
52495;DHT22;38405;53.212;5.660;2023-07-29T09:17:33;21.40;99.90
52495;DHT22;38405;53.212;5.660;2023-07-29T09:19:59;21.40;99.90
52495;DHT22;38405;53.212;5.660;2023-07-29T09:22:27;21.40;99.90
52495;DHT22;38405;53.212;5.660;2023-07-29T09:24:53;21.40;99.90
52495;DHT22;38405;53.212;5.660;2023-07-29T09:27:25;21.40;99.90
52495;DHT22;38405;53.212;5.660;2023-07-29T09:29:52;21.40;99.90
52495;DHT22;38405;53.212;5.660;2023-07-29T09:32:20;21.40;99.90
52495;DHT22;38405;53.212;5.660;2023-07-29T09:34:46;21.50;99.90
52495;DHT22;38405;53.212;5.660;2023-07-29T09:37:21;21.50;99.90
52495;DHT22;38405;53.212;5.660;2023-07-29T09:39:48;21.60;99.90
52495;DHT22;38405;53.212;5.660;2023-07-29T09:42:18;22.10;99.90
52495;DHT22;38405;53.212;5.660;2023-07-29T09:44:45;22.40;99.90
52495;DHT22;38405;53.212;5.660;2023-07-29T09:47:22;22.50;99.90
52495;DHT22;38405;53.212;5.660;2023-07-29T09:49:48;22.40;99.90
52495;DHT22;38405;53.212;5.660;2023-07-29T09:52:21;22.60;99.90
52495;DHT22;38405;53.212;5.660;2023-07-29T09:54:48;22.90;99.90
52495;DHT22;38405;53.212;5.660;2023-07-29T09:57:14;23.20;99.90
52495;DHT22;38405;53.212;5.660;2023-07-29T09:59:41;23.30;99.90
52495;DHT22;38405;53.212;5.660;2023-07-29T10:02:13;23.10;99.90
52495;DHT22;38405;53.212;5.660;2023-07-29T10:04:41;22.80;99.90
52495;DHT22;38405;53.212;5.660;2023-07-29T10:07:08;22.60;99.90
52495;DHT22;38405;53.212;5.660;2023-07-29T10:09:34;22.40;99.90
52495;DHT22;38405;53.212;5.660;2023-07-29T10:12:01;22.30;99.90
52495;DHT22;38405;53.212;5.660;2023-07-29T10:14:28;22.40;99.90
52495;DHT22;38405;53.212;5.660;2023-07-29T10:16:57;22.70;99.90
52495;DHT22;38405;53.212;5.660;2023-07-29T10:19:25;22.90;99.90
52495;DHT22;38405;53.212;5.660;2023-07-29T10:21:51;23.00;99.90
52495;DHT22;38405;53.212;5.660;2023-07-29T10:24:24;23.10;99.90
52495;DHT22;38405;53.212;5.660;2023-07-29T10:26:57;23.10;99.90
52495;DHT22;38405;53.212;5.660;2023-07-29T10:29:24;23.00;99.90
52495;DHT22;38405;53.212;5.660;2023-07-29T10:31:52;22.90;99.90
52495;DHT22;38405;53.212;5.660;2023-07-29T10:34:20;22.70;99.90
52495;DHT22;38405;53.212;5.660;2023-07-29T10:36:47;22.70;99.90
52495;DHT22;38405;53.212;5.660;2023-07-29T10:39:13;22.60;99.90
52495;DHT22;38405;53.212;5.660;2023-07-29T10:41:59;22.70;99.90
52495;DHT22;38405;53.212;5.660;2023-07-29T10:47:15;22.90;99.90
52495;DHT22;38405;53.212;5.660;2023-07-29T10:49:45;22.30;99.90
52495;DHT22;38405;53.212;5.660;2023-07-29T10:52:16;21.70;99.90
52495;DHT22;38405;53.212;5.660;2023-07-29T10:54:47;21.20;99.90
52495;DHT22;38405;53.212;5.660;2023-07-29T10:57:30;21.00;99.90
52495;DHT22;38405;53.212;5.660;2023-07-29T10:59:56;20.90;99.90
52495;DHT22;38405;53.212;5.660;2023-07-29T11:02:32;21.00;99.90
52495;DHT22;38405;53.212;5.660;2023-07-29T11:04:58;21.00;99.90
52495;DHT22;38405;53.212;5.660;2023-07-29T11:07:27;21.00;99.90
52495;DHT22;38405;53.212;5.660;2023-07-29T11:10:12;20.90;99.90
52495;DHT22;38405;53.212;5.660;2023-07-29T11:12:41;20.90;99.90
52495;DHT22;38405;53.212;5.660;2023-07-29T11:18:03;21.60;99.90
52495;DHT22;38405;53.212;5.660;2023-07-29T11:20:30;22.20;99.90
52495;DHT22;38405;53.212;5.660;2023-07-29T11:22:57;22.40;99.90
52495;DHT22;38405;53.212;5.660;2023-07-29T11:25:25;22.60;99.90
52495;DHT22;38405;53.212;5.660;2023-07-29T11:27:58;22.80;99.90
52495;DHT22;38405;53.212;5.660;2023-07-29T11:30:25;23.10;99.90
52495;DHT22;38405;53.212;5.660;2023-07-29T11:32:55;23.50;99.90
52495;DHT22;38405;53.212;5.660;2023-07-29T11:35:21;23.70;99.90
52495;DHT22;38405;53.212;5.660;2023-07-29T11:37:48;23.80;99.90
52495;DHT22;38405;53.212;5.660;2023-07-29T11:40:16;23.70;99.90
52495;DHT22;38405;53.212;5.660;2023-07-29T11:42:42;23.50;99.90
52495;DHT22;38405;53.212;5.660;2023-07-29T11:45:08;23.40;99.90
52495;DHT22;38405;53.212;5.660;2023-07-29T11:47:35;23.40;99.90
52495;DHT22;38405;53.212;5.660;2023-07-29T11:50:06;23.40;99.90
52495;DHT22;38405;53.212;5.660;2023-07-29T11:52:36;23.20;99.90
52495;DHT22;38405;53.212;5.660;2023-07-29T11:55:04;22.90;99.90
52495;DHT22;38405;53.212;5.660;2023-07-29T11:57:36;22.70;99.90
52495;DHT22;38405;53.212;5.660;2023-07-29T12:00:06;22.60;99.90
52495;DHT22;38405;53.212;5.660;2023-07-29T12:02:38;22.30;99.90
52495;DHT22;38405;53.212;5.660;2023-07-29T12:05:08;22.10;99.90
52495;DHT22;38405;53.212;5.660;2023-07-29T12:07:35;21.90;99.90
52495;DHT22;38405;53.212;5.660;2023-07-29T12:10:02;21.80;99.90
52495;DHT22;38405;53.212;5.660;2023-07-29T12:12:29;21.70;99.90
52495;DHT22;38405;53.212;5.660;2023-07-29T12:14:55;21.80;99.90
52495;DHT22;38405;53.212;5.660;2023-07-29T12:17:21;21.80;99.90
52495;DHT22;38405;53.212;5.660;2023-07-29T12:19:46;21.70;99.90
52495;DHT22;38405;53.212;5.660;2023-07-29T12:22:17;21.60;99.90
52495;DHT22;38405;53.212;5.660;2023-07-29T12:24:42;21.50;99.90
52495;DHT22;38405;53.212;5.660;2023-07-29T12:27:12;21.50;99.90
52495;DHT22;38405;53.212;5.660;2023-07-29T12:29:42;21.60;99.90
52495;DHT22;38405;53.212;5.660;2023-07-29T12:32:09;21.70;99.90
52495;DHT22;38405;53.212;5.660;2023-07-29T12:34:36;21.70;99.90
52495;DHT22;38405;53.212;5.660;2023-07-29T12:37:04;21.80;99.90
52495;DHT22;38405;53.212;5.660;2023-07-29T12:39:32;21.90;99.90
52495;DHT22;38405;53.212;5.660;2023-07-29T12:42:00;21.90;99.90
52495;DHT22;38405;53.212;5.660;2023-07-29T12:44:33;21.90;99.90
52495;DHT22;38405;53.212;5.660;2023-07-29T12:47:01;21.90;99.90
52495;DHT22;38405;53.212;5.660;2023-07-29T12:49:28;21.80;99.90
52495;DHT22;38405;53.212;5.660;2023-07-29T12:51:57;21.80;99.90
52495;DHT22;38405;53.212;5.660;2023-07-29T12:54:23;21.90;99.90
52495;DHT22;38405;53.212;5.660;2023-07-29T12:56:49;22.10;99.90
52495;DHT22;38405;53.212;5.660;2023-07-29T12:59:15;22.20;99.90
52495;DHT22;38405;53.212;5.660;2023-07-29T13:01:41;22.40;99.90
52495;DHT22;38405;53.212;5.660;2023-07-29T13:04:06;22.50;99.90
52495;DHT22;38405;53.212;5.660;2023-07-29T13:06:32;22.60;99.90
52495;DHT22;38405;53.212;5.660;2023-07-29T13:08:58;22.60;99.90
52495;DHT22;38405;53.212;5.660;2023-07-29T13:11:23;22.70;99.90
52495;DHT22;38405;53.212;5.660;2023-07-29T13:13:49;22.70;99.90
52495;DHT22;38405;53.212;5.660;2023-07-29T13:16:15;22.60;99.90
52495;DHT22;38405;53.212;5.660;2023-07-29T13:18:43;22.50;99.90
52495;DHT22;38405;53.212;5.660;2023-07-29T13:21:09;22.50;99.90
52495;DHT22;38405;53.212;5.660;2023-07-29T13:23:35;22.50;99.90
52495;DHT22;38405;53.212;5.660;2023-07-29T13:26:03;22.40;99.90
52495;DHT22;38405;53.212;5.660;2023-07-29T13:28:29;22.40;99.90
52495;DHT22;38405;53.212;5.660;2023-07-29T13:30:54;22.40;99.90
52495;DHT22;38405;53.212;5.660;2023-07-29T13:33:20;22.30;99.90
52495;DHT22;38405;53.212;5.660;2023-07-29T13:35:46;22.40;99.90
52495;DHT22;38405;53.212;5.660;2023-07-29T13:38:12;22.30;99.90
52495;DHT22;38405;53.212;5.660;2023-07-29T13:40:37;22.20;99.90
52495;DHT22;38405;53.212;5.660;2023-07-29T13:43:03;22.20;99.90
52495;DHT22;38405;53.212;5.660;2023-07-29T13:45:29;22.20;99.90
52495;DHT22;38405;53.212;5.660;2023-07-29T13:47:54;22.10;99.90
52495;DHT22;38405;53.212;5.660;2023-07-29T13:50:20;22.10;99.90
52495;DHT22;38405;53.212;5.660;2023-07-29T13:52:46;22.10;99.90
52495;DHT22;38405;53.212;5.660;2023-07-29T13:55:11;22.00;99.90
52495;DHT22;38405;53.212;5.660;2023-07-29T13:57:38;21.90;99.90
52495;DHT22;38405;53.212;5.660;2023-07-29T14:00:05;21.80;99.90
52495;DHT22;38405;53.212;5.660;2023-07-29T14:02:32;21.80;99.90
52495;DHT22;38405;53.212;5.660;2023-07-29T14:04:57;21.70;99.90
52495;DHT22;38405;53.212;5.660;2023-07-29T14:07:23;21.60;99.90
52495;DHT22;38405;53.212;5.660;2023-07-29T14:09:49;21.60;99.90
52495;DHT22;38405;53.212;5.660;2023-07-29T14:12:14;21.60;99.90
52495;DHT22;38405;53.212;5.660;2023-07-29T14:14:44;21.60;99.90
52495;DHT22;38405;53.212;5.660;2023-07-29T14:17:09;21.70;99.90
52495;DHT22;38405;53.212;5.660;2023-07-29T14:19:36;21.60;99.90
52495;DHT22;38405;53.212;5.660;2023-07-29T14:22:02;21.60;99.90
52495;DHT22;38405;53.212;5.660;2023-07-29T14:24:28;21.60;99.90
52495;DHT22;38405;53.212;5.660;2023-07-29T14:26:53;21.60;99.90
52495;DHT22;38405;53.212;5.660;2023-07-29T14:29:19;21.60;99.90
52495;DHT22;38405;53.212;5.660;2023-07-29T14:31:45;21.50;99.90
52495;DHT22;38405;53.212;5.660;2023-07-29T14:34:10;21.50;99.90
52495;DHT22;38405;53.212;5.660;2023-07-29T14:36:36;21.50;99.90
52495;DHT22;38405;53.212;5.660;2023-07-29T14:39:02;21.50;99.90
52495;DHT22;38405;53.212;5.660;2023-07-29T14:41:29;21.50;99.90
52495;DHT22;38405;53.212;5.660;2023-07-29T14:43:54;21.60;99.90
52495;DHT22;38405;53.212;5.660;2023-07-29T14:46:20;21.60;99.90
52495;DHT22;38405;53.212;5.660;2023-07-29T14:48:45;21.60;99.90
52495;DHT22;38405;53.212;5.660;2023-07-29T14:51:12;21.60;99.90
52495;DHT22;38405;53.212;5.660;2023-07-29T14:53:38;21.60;99.90
52495;DHT22;38405;53.212;5.660;2023-07-29T14:56:04;21.70;99.90
52495;DHT22;38405;53.212;5.660;2023-07-29T14:58:30;21.70;99.90
52495;DHT22;38405;53.212;5.660;2023-07-29T15:00:56;21.70;99.90
52495;DHT22;38405;53.212;5.660;2023-07-29T15:03:21;21.60;99.90
52495;DHT22;38405;53.212;5.660;2023-07-29T15:05:49;21.60;99.90
52495;DHT22;38405;53.212;5.660;2023-07-29T15:08:14;21.60;99.90
52495;DHT22;38405;53.212;5.660;2023-07-29T15:10:40;21.60;99.90
52495;DHT22;38405;53.212;5.660;2023-07-29T15:13:06;21.60;99.90
52495;DHT22;38405;53.212;5.660;2023-07-29T15:15:32;21.60;99.90
52495;DHT22;38405;53.212;5.660;2023-07-29T15:17:57;21.60;99.90
52495;DHT22;38405;53.212;5.660;2023-07-29T15:20:26;21.50;99.90
52495;DHT22;38405;53.212;5.660;2023-07-29T15:22:52;21.60;99.90
52495;DHT22;38405;53.212;5.660;2023-07-29T15:25:17;21.60;99.90
52495;DHT22;38405;53.212;5.660;2023-07-29T15:27:43;21.60;99.90
52495;DHT22;38405;53.212;5.660;2023-07-29T15:30:09;21.60;99.90
52495;DHT22;38405;53.212;5.660;2023-07-29T15:32:37;21.70;99.90
52495;DHT22;38405;53.212;5.660;2023-07-29T15:35:03;21.80;99.90
52495;DHT22;38405;53.212;5.660;2023-07-29T15:37:29;21.80;99.90